Time;durP1;ratioP1;P1;durP2;ratioP2;P2;SDS_P1;SDS_P2;PMS_P1;PMS_P2;Temp;Humidity;BMP_temperature;BMP_pressure;BME280_temperature;BME280_humidity;BME280_pressure;Samples;Min_cycle;Max_cycle;Signal;HPM_P1;HPM_P2
2022/03/09 00:00:26;;;;;;;14.23;8.52;;;;;;;;;;4985090;28;20078;-56
2022/03/09 00:02:52;;;;;;;15.07;9.05;;;;;;;;;;4984397;28;20061;-56
2022/03/09 00:05:19;;;;;;;15.50;9.75;;;;;;;;;;4984830;28;20121;-56
2022/03/09 00:07:46;;;;;;;14.85;8.55;;;;;;;;;;4984373;28;20018;-55
2022/03/09 00:10:13;;;;;;;13.82;8.75;;;;;;;;;;4983910;28;20516;-56
2022/03/09 00:12:39;;;;;;;15.50;8.13;;;;;;;;;;4967312;28;20026;-56
2022/03/09 00:15:05;;;;;;;13.60;8.65;;;;;;;;;;4981736;28;20031;-56
2022/03/09 00:17:31;;;;;;;14.68;9.23;;;;;;;;;;4975432;28;20049;-55
2022/03/09 00:19:57;;;;;;;14.65;8.93;;;;;;;;;;4984930;28;20026;-56
2022/03/09 00:22:23;;;;;;;13.35;8.02;;;;;;;;;;4968023;28;20037;-56
2022/03/09 00:24:49;;;;;;;14.07;9.18;;;;;;;;;;4984112;28;20118;-55
2022/03/09 00:27:15;;;;;;;14.30;8.65;;;;;;;;;;4984748;28;20066;-55
2022/03/09 00:29:42;;;;;;;14.85;9.40;;;;;;;;;;4984880;28;20516;-56
2022/03/09 00:32:08;;;;;;;15.05;8.77;;;;;;;;;;4983762;28;20078;-55
2022/03/09 00:34:34;;;;;;;11.75;8.13;;;;;;;;;;4983283;28;20057;-56
2022/03/09 00:37:02;;;;;;;13.75;7.95;;;;;;;;;;4966912;28;20513;-56
2022/03/09 00:39:29;;;;;;;15.00;9.02;;;;;;;;;;4967341;28;20410;-56
2022/03/09 00:41:55;;;;;;;17.73;8.88;;;;;;;;;;4988861;28;20556;-56
2022/03/09 00:44:21;;;;;;;14.07;8.07;;;;;;;;;;4988540;28;20516;-57
2022/03/09 00:46:47;;;;;;;11.02;7.45;;;;;;;;;;4970390;28;20034;-57
2022/03/09 00:49:13;;;;;;;12.18;8.30;;;;;;;;;;4987509;28;20030;-56
2022/03/09 00:51:39;;;;;;;13.00;8.38;;;;;;;;;;4988493;28;20023;-56
2022/03/09 00:54:05;;;;;;;12.05;7.65;;;;;;;;;;4988268;28;20085;-55
2022/03/09 00:56:31;;;;;;;12.88;8.27;;;;;;;;;;4988266;28;20034;-56
2022/03/09 00:58:58;;;;;;;13.15;7.97;;;;;;;;;;4987983;28;20030;-56
2022/03/09 01:01:25;;;;;;;13.80;7.78;;;;;;;;;;4988552;28;20030;-56
2022/03/09 01:03:51;;;;;;;10.90;7.07;;;;;;;;;;4970299;28;20061;-56
2022/03/09 01:06:17;;;;;;;13.18;6.65;;;;;;;;;;4970729;28;20489;-54
2022/03/09 01:08:43;;;;;;;9.98;6.43;;;;;;;;;;4987097;28;20030;-56
2022/03/09 01:11:09;;;;;;;9.10;5.32;;;;;;;;;;4987490;28;20034;-56
2022/03/09 01:13:36;;;;;;;10.30;5.72;;;;;;;;;;4988426;28;20112;-55
2022/03/09 01:16:02;;;;;;;10.77;6.40;;;;;;;;;;4987307;28;20495;-56
2022/03/09 01:18:28;;;;;;;8.02;5.00;;;;;;;;;;4987198;28;20093;-57
2022/03/09 01:20:55;;;;;;;6.68;4.13;;;;;;;;;;4988117;28;20567;-56
2022/03/09 01:23:22;;;;;;;6.13;3.90;;;;;;;;;;4987607;28;20506;-56
2022/03/09 01:25:51;;;;;;;6.15;3.92;;;;;;;;;;4987559;28;20108;-56
2022/03/09 01:28:17;;;;;;;5.20;3.45;;;;;;;;;;4987126;28;20050;-55
2022/03/09 01:30:44;;;;;;;6.38;3.92;;;;;;;;;;4987552;28;20029;-56
2022/03/09 01:33:10;;;;;;;8.35;4.82;;;;;;;;;;4986450;28;20045;-56
2022/03/09 01:35:36;;;;;;;8.55;4.95;;;;;;;;;;4987194;28;20527;-56
2022/03/09 01:38:03;;;;;;;5.72;4.07;;;;;;;;;;4985493;28;20116;-56
2022/03/09 01:40:29;;;;;;;5.88;4.53;;;;;;;;;;4987110;28;20421;-56
2022/03/09 01:42:55;;;;;;;6.45;4.15;;;;;;;;;;4987924;28;20426;-56
2022/03/09 01:45:21;;;;;;;6.75;3.78;;;;;;;;;;4968984;28;20030;-55
2022/03/09 01:47:48;;;;;;;5.40;3.30;;;;;;;;;;4969574;28;20031;-56
2022/03/09 01:50:14;;;;;;;5.28;3.78;;;;;;;;;;4969840;28;20022;-56
2022/03/09 01:52:41;;;;;;;5.57;3.50;;;;;;;;;;4985116;28;20057;-56
2022/03/09 01:55:07;;;;;;;6.25;3.90;;;;;;;;;;4969820;28;20085;-56
2022/03/09 01:57:33;;;;;;;5.53;4.00;;;;;;;;;;4953655;28;20034;-54
2022/03/09 02:00:00;;;;;;;5.10;3.90;;;;;;;;;;4987405;28;20041;-55
2022/03/09 02:02:26;;;;;;;6.50;4.10;;;;;;;;;;4987938;28;20034;-55
2022/03/09 02:04:53;;;;;;;6.53;4.13;;;;;;;;;;4985093;28;20034;-55
2022/03/09 02:09:41;;;;;;;6.05;3.95;;;;;;;;;;4987501;28;20041;-55
2022/03/09 02:10:05;;;;;;;6.72;4.28;;;;;;;;;;4985380;28;20109;-55
2022/03/09 02:12:31;;;;;;;6.95;4.60;;;;;;;;;;4987857;28;20489;-54
2022/03/09 02:14:58;;;;;;;7.05;4.35;;;;;;;;;;4983691;28;20076;-55
2022/03/09 02:17:28;;;;;;;6.60;4.57;;;;;;;;;;4986850;28;20073;-55
2022/03/09 02:19:54;;;;;;;8.43;5.05;;;;;;;;;;4987074;28;20041;-55
2022/03/09 02:22:20;;;;;;;8.63;4.95;;;;;;;;;;4987215;28;20030;-55
2022/03/09 02:24:47;;;;;;;6.13;4.50;;;;;;;;;;4987133;28;20035;-55
2022/03/09 02:27:13;;;;;;;6.25;4.30;;;;;;;;;;4987942;28;20022;-55
2022/03/09 02:29:40;;;;;;;6.45;4.20;;;;;;;;;;4987343;28;20022;-56
2022/03/09 02:32:07;;;;;;;7.00;4.70;;;;;;;;;;4986903;28;20064;-55
2022/03/09 02:34:34;;;;;;;7.13;4.45;;;;;;;;;;4986408;28;20018;-55
2022/03/09 02:37:01;;;;;;;7.57;4.47;;;;;;;;;;4986844;28;20375;-55
2022/03/09 02:39:27;;;;;;;6.60;4.47;;;;;;;;;;4986912;28;20032;-56
2022/03/09 02:41:53;;;;;;;7.10;4.60;;;;;;;;;;4985220;28;20560;-55
2022/03/09 02:44:20;;;;;;;7.50;4.85;;;;;;;;;;4986843;28;20022;-56
2022/03/09 02:46:46;;;;;;;7.70;5.20;;;;;;;;;;4986667;28;20041;-55
2022/03/09 02:49:12;;;;;;;7.32;4.97;;;;;;;;;;4987464;28;20026;-54
2022/03/09 02:51:39;;;;;;;8.77;5.25;;;;;;;;;;4985673;28;20030;-55
2022/03/09 02:54:06;;;;;;;7.15;4.53;;;;;;;;;;4987033;28;20057;-55
2022/03/09 02:56:32;;;;;;;6.05;4.28;;;;;;;;;;4986853;28;20035;-55
2022/03/09 02:58:58;;;;;;;6.97;4.78;;;;;;;;;;4986628;28;20034;-55
2022/03/09 03:01:24;;;;;;;8.43;5.22;;;;;;;;;;4984454;28;20034;-55
2022/03/09 03:03:50;;;;;;;5.93;4.47;;;;;;;;;;4985327;28;20022;-55
2022/03/09 03:06:17;;;;;;;6.68;4.93;;;;;;;;;;4985910;28;20041;-55
2022/03/09 03:08:43;;;;;;;8.40;5.32;;;;;;;;;;4987145;28;20053;-54
2022/03/09 03:11:10;;;;;;;8.93;5.18;;;;;;;;;;4985494;28;20027;-55
2022/03/09 03:13:38;;;;;;;7.18;4.90;;;;;;;;;;4986570;28;20030;-55
2022/03/09 03:16:05;;;;;;;7.32;4.90;;;;;;;;;;4986021;28;20030;-55
2022/03/09 03:18:32;;;;;;;6.25;4.18;;;;;;;;;;4968535;28;20516;-55
2022/03/09 03:20:58;;;;;;;5.85;4.32;;;;;;;;;;4968237;28;20034;-55
2022/03/09 03:23:26;;;;;;;6.30;4.72;;;;;;;;;;4986300;28;20037;-54
2022/03/09 03:25:52;;;;;;;5.75;4.38;;;;;;;;;;4986038;28;20109;-55
2022/03/09 03:28:19;;;;;;;6.22;4.43;;;;;;;;;;4986233;28;20026;-55
2022/03/09 03:30:45;;;;;;;7.22;4.57;;;;;;;;;;4984855;28;20552;-55
2022/03/09 03:33:11;;;;;;;10.15;4.90;;;;;;;;;;4985265;28;20029;-55
2022/03/09 03:35:39;;;;;;;6.90;4.80;;;;;;;;;;4986119;28;20117;-55
2022/03/09 03:38:06;;;;;;;6.40;4.43;;;;;;;;;;4985666;28;20037;-54
2022/03/09 03:40:33;;;;;;;6.82;4.57;;;;;;;;;;4985869;28;20069;-55
2022/03/09 03:42:59;;;;;;;6.07;4.10;;;;;;;;;;4984421;28;20026;-55
2022/03/09 03:45:26;;;;;;;7.47;4.63;;;;;;;;;;4985791;28;20379;-54
2022/03/09 03:47:52;;;;;;;7.03;4.45;;;;;;;;;;4985524;28;20026;-54
2022/03/09 03:50:18;;;;;;;6.97;4.78;;;;;;;;;;4984523;28;20036;-54
2022/03/09 03:52:44;;;;;;;5.88;4.50;;;;;;;;;;4986387;28;20030;-55
2022/03/09 03:55:12;;;;;;;8.07;5.03;;;;;;;;;;4986047;28;20036;-55
2022/03/09 03:57:39;;;;;;;6.82;4.93;;;;;;;;;;4968227;28;20061;-55
2022/03/09 04:00:06;;;;;;;6.88;4.47;;;;;;;;;;4984664;28;20532;-55
2022/03/09 04:02:33;;;;;;;6.78;4.47;;;;;;;;;;4985586;28;20058;-54
2022/03/09 04:04:59;;;;;;;6.35;4.35;;;;;;;;;;4985311;28;20035;-55
2022/03/09 04:07:26;;;;;;;7.57;4.45;;;;;;;;;;4984334;28;20030;-55
2022/03/09 04:09:52;;;;;;;7.10;4.78;;;;;;;;;;4985931;28;20030;-55
2022/03/09 04:12:18;;;;;;;6.20;4.30;;;;;;;;;;4983734;28;20045;-54
2022/03/09 04:14:44;;;;;;;6.20;4.00;;;;;;;;;;4984892;28;20552;-55
2022/03/09 04:17:11;;;;;;;7.85;4.43;;;;;;;;;;4984335;28;20026;-55
2022/03/09 04:19:37;;;;;;;5.95;4.50;;;;;;;;;;4985515;28;20069;-54
2022/03/09 04:22:04;;;;;;;5.25;3.97;;;;;;;;;;4984504;28;20018;-55
2022/03/09 04:24:30;;;;;;;6.72;4.25;;;;;;;;;;4984166;28;20084;-55
2022/03/09 04:26:56;;;;;;;6.13;4.15;;;;;;;;;;4985433;28;20462;-55
2022/03/09 04:29:23;;;;;;;6.43;4.63;;;;;;;;;;4986280;28;20043;-55
2022/03/09 04:31:50;;;;;;;7.70;4.90;;;;;;;;;;4984629;28;20026;-55
2022/03/09 04:34:16;;;;;;;6.25;4.05;;;;;;;;;;4984435;28;20036;-54
2022/03/09 04:36:42;;;;;;;6.60;4.40;;;;;;;;;;4985044;28;20533;-54
2022/03/09 04:39:08;;;;;;;7.88;4.97;;;;;;;;;;4984590;28;20053;-54
2022/03/09 04:41:34;;;;;;;6.18;4.20;;;;;;;;;;4985307;28;20255;-55
2022/03/09 04:44:00;;;;;;;7.05;5.07;;;;;;;;;;4983641;28;20092;-56
2022/03/09 04:46:27;;;;;;;7.70;4.72;;;;;;;;;;4984262;28;20022;-54
2022/03/09 04:48:54;;;;;;;6.30;4.53;;;;;;;;;;4985424;28;20031;-55
2022/03/09 04:51:20;;;;;;;7.93;5.05;;;;;;;;;;4984957;28;20026;-55
2022/03/09 04:53:46;;;;;;;8.52;5.32;;;;;;;;;;4984906;28;20026;-55
2022/03/09 04:56:12;;;;;;;7.45;4.90;;;;;;;;;;4984413;28;20026;-55
2022/03/09 04:58:38;;;;;;;8.80;5.38;;;;;;;;;;4985097;28;20080;-54
2022/03/09 05:01:05;;;;;;;9.40;5.57;;;;;;;;;;4984630;28;20413;-55
2022/03/09 05:03:34;;;;;;;7.43;5.07;;;;;;;;;;4984877;28;20101;-55
2022/03/09 05:06:02;;;;;;;8.35;5.30;;;;;;;;;;4984121;28;20391;-54
2022/03/09 05:08:28;;;;;;;8.68;5.70;;;;;;;;;;4985059;28;20118;-55
2022/03/09 05:10:54;;;;;;;7.32;5.35;;;;;;;;;;4985556;28;20058;-54
2022/03/09 05:13:20;;;;;;;9.18;5.95;;;;;;;;;;4984691;28;20027;-54
2022/03/09 05:15:46;;;;;;;8.27;5.28;;;;;;;;;;4969514;28;20072;-55
2022/03/09 05:18:14;;;;;;;7.63;5.28;;;;;;;;;;4984081;28;20075;-53
2022/03/09 05:20:41;;;;;;;9.27;5.50;;;;;;;;;;4984789;28;20030;-55
2022/03/09 05:23:07;;;;;;;8.95;5.40;;;;;;;;;;4984674;28;20042;-55
2022/03/09 05:25:33;;;;;;;10.88;6.03;;;;;;;;;;4984046;28;20530;-55
2022/03/09 05:28:00;;;;;;;7.95;5.45;;;;;;;;;;4987432;28;20080;-53
2022/03/09 05:30:26;;;;;;;8.50;4.97;;;;;;;;;;4987217;28;20034;-55
2022/03/09 05:32:52;;;;;;;8.20;5.30;;;;;;;;;;4989431;28;20030;-55
2022/03/09 05:35:18;;;;;;;9.00;5.95;;;;;;;;;;4982712;28;20041;-55
2022/03/09 05:37:45;;;;;;;8.80;5.80;;;;;;;;;;4985109;28;20485;-54
2022/03/09 05:40:13;;;;;;;9.25;6.05;;;;;;;;;;4989639;28;20097;-53
2022/03/09 05:42:39;;;;;;;8.95;5.47;;;;;;;;;;4989089;28;20497;-55
2022/03/09 05:45:05;;;;;;;8.60;6.05;;;;;;;;;;4988372;28;20446;-53
2022/03/09 05:47:32;;;;;;;7.95;5.82;;;;;;;;;;4981603;28;20139;-55
2022/03/09 05:49:58;;;;;;;7.80;5.03;;;;;;;;;;4969958;28;20038;-55
2022/03/09 05:52:24;;;;;;;9.55;5.95;;;;;;;;;;4970465;28;20033;-55
2022/03/09 05:54:50;;;;;;;8.80;6.00;;;;;;;;;;4974634;28;20109;-54
2022/03/09 05:57:20;;;;;;;8.90;5.85;;;;;;;;;;4988321;28;20047;-55
2022/03/09 05:59:47;;;;;;;9.25;6.35;;;;;;;;;;4989042;28;20033;-55
2022/03/09 06:02:13;;;;;;;9.45;5.68;;;;;;;;;;4989283;28;20077;-55
2022/03/09 06:04:39;;;;;;;9.77;5.88;;;;;;;;;;4987762;28;20034;-55
2022/03/09 06:07:05;;;;;;;8.98;5.90;;;;;;;;;;4987108;28;20499;-55
2022/03/09 06:09:31;;;;;;;8.65;5.60;;;;;;;;;;4989582;28;20073;-55
2022/03/09 06:11:57;;;;;;;6.63;4.78;;;;;;;;;;4987689;28;20038;-55
2022/03/09 06:14:23;;;;;;;9.25;5.13;;;;;;;;;;4986632;28;20030;-55
2022/03/09 06:16:51;;;;;;;6.85;4.90;;;;;;;;;;4987487;28;20089;-54
2022/03/09 06:19:18;;;;;;;8.55;5.03;;;;;;;;;;4990177;28;20034;-55
2022/03/09 06:21:45;;;;;;;7.00;4.93;;;;;;;;;;4976103;28;20098;-55
2022/03/09 06:24:12;;;;;;;9.95;6.38;;;;;;;;;;4981677;28;20533;-55
2022/03/09 06:26:38;;;;;;;8.52;5.60;;;;;;;;;;4987949;28;20034;-55
2022/03/09 06:29:05;;;;;;;9.00;6.28;;;;;;;;;;4986227;28;20531;-54
2022/03/09 06:31:32;;;;;;;9.32;5.85;;;;;;;;;;4987450;28;20030;-55
2022/03/09 06:33:59;;;;;;;9.70;6.38;;;;;;;;;;4987931;28;20030;-55
2022/03/09 06:36:26;;;;;;;9.80;6.40;;;;;;;;;;4988272;28;20073;-55
2022/03/09 06:38:52;;;;;;;10.43;6.85;;;;;;;;;;4969793;28;20509;-55
2022/03/09 06:41:18;;;;;;;10.35;6.80;;;;;;;;;;4987864;28;20938;-55
2022/03/09 06:43:44;;;;;;;10.23;6.20;;;;;;;;;;4984867;28;20113;-55
2022/03/09 06:46:11;;;;;;;10.88;7.05;;;;;;;;;;4986931;28;20088;-54
2022/03/09 06:48:37;;;;;;;10.73;6.82;;;;;;;;;;4973411;28;20594;-55
2022/03/09 06:51:03;;;;;;;13.02;7.60;;;;;;;;;;4987714;28;20064;-55
2022/03/09 06:53:29;;;;;;;12.82;7.43;;;;;;;;;;4986794;28;20061;-56
2022/03/09 06:55:55;;;;;;;12.88;8.60;;;;;;;;;;4987514;28;20038;-55
2022/03/09 06:58:23;;;;;;;11.70;7.60;;;;;;;;;;4987702;28;20101;-55
2022/03/09 07:00:49;;;;;;;13.48;8.00;;;;;;;;;;4987958;28;20034;-55
2022/03/09 07:03:15;;;;;;;12.20;7.88;;;;;;;;;;4986313;28;20034;-54
2022/03/09 07:05:41;;;;;;;12.10;6.88;;;;;;;;;;4987613;28;20030;-56
2022/03/09 07:08:08;;;;;;;11.27;7.05;;;;;;;;;;4986330;28;20401;-55
2022/03/09 07:10:34;;;;;;;10.77;6.97;;;;;;;;;;4987556;28;20110;-55
2022/03/09 07:13:00;;;;;;;10.80;6.20;;;;;;;;;;4979091;28;20114;-56
2022/03/09 07:15:27;;;;;;;8.52;5.55;;;;;;;;;;4968959;28;20031;-56
2022/03/09 07:17:53;;;;;;;7.78;5.25;;;;;;;;;;4986096;28;20057;-56
2022/03/09 07:20:19;;;;;;;8.57;5.90;;;;;;;;;;4987224;28;20068;-55
2022/03/09 07:22:46;;;;;;;7.63;5.63;;;;;;;;;;4975909;28;20471;-56
2022/03/09 07:25:13;;;;;;;7.55;5.20;;;;;;;;;;4967869;28;20137;-55
2022/03/09 07:27:39;;;;;;;6.80;4.78;;;;;;;;;;4967291;28;20461;-54
2022/03/09 07:30:06;;;;;;;7.82;5.03;;;;;;;;;;4984769;28;20433;-55
2022/03/09 07:32:32;;;;;;;6.93;4.70;;;;;;;;;;4981009;28;20030;-55
2022/03/09 07:34:58;;;;;;;5.93;4.35;;;;;;;;;;4968359;28;20035;-56
2022/03/09 07:37:25;;;;;;;7.13;4.43;;;;;;;;;;4968412;28;20513;-55
2022/03/09 07:39:51;;;;;;;6.28;4.55;;;;;;;;;;4967385;28;20429;-55
2022/03/09 07:42:17;;;;;;;6.93;5.18;;;;;;;;;;4974755;28;20524;-56
2022/03/09 07:44:43;;;;;;;6.13;4.07;;;;;;;;;;4986339;28;20045;-55
2022/03/09 07:47:10;;;;;;;5.90;4.30;;;;;;;;;;4983280;28;20026;-55
2022/03/09 07:49:37;;;;;;;7.40;4.82;;;;;;;;;;4986719;28;20030;-56
2022/03/09 07:52:04;;;;;;;5.50;3.97;;;;;;;;;;4987637;28;20014;-57
2022/03/09 07:54:30;;;;;;;6.22;4.28;;;;;;;;;;4982790;28;20106;-55
2022/03/09 07:56:57;;;;;;;5.97;4.22;;;;;;;;;;4978277;28;20027;-56
2022/03/09 07:59:23;;;;;;;4.60;3.50;;;;;;;;;;4979026;28;20573;-55
2022/03/09 08:01:53;;;;;;;5.05;3.60;;;;;;;;;;4990293;28;20026;-55
2022/03/09 08:04:20;;;;;;;6.95;4.57;;;;;;;;;;4989368;28;20045;-55
2022/03/09 08:06:50;;;;;;;5.28;3.42;;;;;;;;;;4984144;28;20062;-55
2022/03/09 08:09:16;;;;;;;5.07;3.70;;;;;;;;;;4982506;28;20517;-55
2022/03/09 08:11:44;;;;;;;6.10;3.78;;;;;;;;;;4985210;28;20031;-55
2022/03/09 08:14:11;;;;;;;4.43;3.05;;;;;;;;;;4985205;28;20034;-55
2022/03/09 08:16:37;;;;;;;5.00;3.38;;;;;;;;;;4986329;28;20030;-56
2022/03/09 08:19:04;;;;;;;4.72;3.15;;;;;;;;;;4985910;28;20092;-55
2022/03/09 08:21:30;;;;;;;4.50;2.90;;;;;;;;;;4985757;28;20405;-55
2022/03/09 08:23:56;;;;;;;4.07;3.00;;;;;;;;;;4985907;28;20092;-56
2022/03/09 08:26:22;;;;;;;5.53;2.97;;;;;;;;;;4984799;28;20053;-56
2022/03/09 08:28:48;;;;;;;4.93;3.00;;;;;;;;;;4981048;28;20049;-55
2022/03/09 08:31:14;;;;;;;5.10;3.42;;;;;;;;;;4975792;28;20125;-55
2022/03/09 08:33:42;;;;;;;4.55;3.28;;;;;;;;;;4986007;28;20554;-55
2022/03/09 08:36:11;;;;;;;4.95;2.92;;;;;;;;;;4985653;28;20062;-55
2022/03/09 08:38:37;;;;;;;4.60;3.35;;;;;;;;;;4985021;28;20051;-54
2022/03/09 08:41:03;;;;;;;5.45;3.67;;;;;;;;;;4982100;28;20144;-55
2022/03/09 08:43:29;;;;;;;6.13;4.00;;;;;;;;;;4984743;28;20037;-55
2022/03/09 08:45:55;;;;;;;5.43;3.85;;;;;;;;;;4985203;28;20100;-55
2022/03/09 08:48:21;;;;;;;5.10;3.33;;;;;;;;;;4984871;28;20022;-55
2022/03/09 08:50:48;;;;;;;5.82;4.13;;;;;;;;;;4985662;28;20031;-55
2022/03/09 08:53:15;;;;;;;4.82;3.33;;;;;;;;;;4984779;28;20505;-55
2022/03/09 08:55:42;;;;;;;5.25;3.22;;;;;;;;;;4982553;28;20049;-55
2022/03/09 08:58:08;;;;;;;4.78;3.13;;;;;;;;;;4984676;28;20406;-55
2022/03/09 09:00:34;;;;;;;6.95;5.00;;;;;;;;;;4986898;28;20081;-55
2022/03/09 09:03:00;;;;;;;8.05;5.75;;;;;;;;;;4990331;28;20033;-55
2022/03/09 09:05:26;;;;;;;7.30;5.18;;;;;;;;;;4989653;28;20452;-55
2022/03/09 09:07:52;;;;;;;6.82;4.53;;;;;;;;;;4988702;28;20094;-55
2022/03/09 09:10:18;;;;;;;5.43;3.95;;;;;;;;;;4970960;28;20181;-55
2022/03/09 09:12:50;;;;;;;7.97;5.45;;;;;;;;;;4988271;28;20022;-55
2022/03/09 09:15:16;;;;;;;8.30;5.93;;;;;;;;;;4988817;28;20171;-56
2022/03/09 09:17:43;;;;;;;7.57;4.82;;;;;;;;;;4988500;28;20493;-55
2022/03/09 09:20:09;;;;;;;10.93;7.43;;;;;;;;;;4987075;28;20080;-55
2022/03/09 09:22:36;;;;;;;9.95;6.88;;;;;;;;;;4997823;28;20037;-56
2022/03/09 09:25:04;;;;;;;8.68;6.38;;;;;;;;;;4991109;28;20120;-55
2022/03/09 09:27:31;;;;;;;10.10;6.90;;;;;;;;;;4988830;28;20580;-56
2022/03/09 09:29:56;;;;;;;8.60;6.05;;;;;;;;;;4988585;28;20027;-55
2022/03/09 09:32:22;;;;;;;7.75;5.80;;;;;;;;;;4987113;28;20374;-55
2022/03/09 09:34:48;;;;;;;6.32;4.95;;;;;;;;;;4991109;28;20030;-56
2022/03/09 09:37:14;;;;;;;8.98;6.50;;;;;;;;;;4998378;28;20018;-56
2022/03/09 09:39:41;;;;;;;8.38;6.15;;;;;;;;;;4997066;28;20030;-56
2022/03/09 09:42:07;;;;;;;10.95;6.95;;;;;;;;;;4989231;28;20027;-54
2022/03/09 09:44:35;;;;;;;9.45;6.25;;;;;;;;;;4989387;28;20038;-56
2022/03/09 09:47:01;;;;;;;6.93;5.32;;;;;;;;;;4988502;28;20081;-55
2022/03/09 09:49:27;;;;;;;6.22;4.57;;;;;;;;;;4988626;28;20030;-54
2022/03/09 09:51:54;;;;;;;7.22;4.80;;;;;;;;;;4987510;28;20058;-56
2022/03/09 09:54:22;;;;;;;6.15;4.18;;;;;;;;;;4988041;28;20307;-55
2022/03/09 09:56:49;;;;;;;4.55;3.85;;;;;;;;;;4987422;28;20034;-55
2022/03/09 09:59:15;;;;;;;5.07;3.38;;;;;;;;;;4987635;28;20069;-55
2022/03/09 10:01:41;;;;;;;4.50;3.60;;;;;;;;;;4987314;28;20062;-56
2022/03/09 10:04:08;;;;;;;4.40;3.33;;;;;;;;;;4986657;28;20521;-55
2022/03/09 10:06:34;;;;;;;8.52;6.18;;;;;;;;;;4989039;28;20105;-55
2022/03/09 10:09:08;;;;;;;7.88;5.55;;;;;;;;;;4988677;28;20549;-55
2022/03/09 10:11:46;;;;;;;7.25;4.93;;;;;;;;;;4986903;28;20414;-56
2022/03/09 10:14:12;;;;;;;8.13;5.60;;;;;;;;;;4988861;28;20027;-56
2022/03/09 10:16:38;;;;;;;10.60;6.53;;;;;;;;;;4988632;28;20057;-56
2022/03/09 10:19:04;;;;;;;6.75;4.78;;;;;;;;;;4981780;28;20032;-56
2022/03/09 10:21:35;;;;;;;6.00;4.30;;;;;;;;;;4988682;28;20529;-55
2022/03/09 10:24:09;;;;;;;7.68;4.85;;;;;;;;;;4984571;28;20085;-55
2022/03/09 10:26:35;;;;;;;5.97;4.22;;;;;;;;;;4986096;28;20042;-55
2022/03/09 10:29:01;;;;;;;6.20;4.38;;;;;;;;;;4989104;28;20461;-55
2022/03/09 10:31:34;;;;;;;7.80;5.53;;;;;;;;;;4987881;28;20049;-55
2022/03/09 10:34:07;;;;;;;6.53;4.75;;;;;;;;;;4986160;28;20437;-55
2022/03/09 10:36:33;;;;;;;7.57;4.75;;;;;;;;;;4989147;28;20097;-55
2022/03/09 10:39:11;;;;;;;8.25;4.75;;;;;;;;;;4989752;28;20038;-55
2022/03/09 10:41:37;;;;;;;7.20;5.50;;;;;;;;;;4988975;28;20026;-55
2022/03/09 10:44:04;;;;;;;8.35;5.70;;;;;;;;;;4976244;28;20046;-55
2022/03/09 10:46:40;;;;;;;9.60;6.10;;;;;;;;;;4986670;28;20061;-54
2022/03/09 10:49:07;;;;;;;9.80;6.45;;;;;;;;;;4988963;28;20037;-55
2022/03/09 10:51:44;;;;;;;8.73;5.50;;;;;;;;;;4989123;28;20030;-54
2022/03/09 10:54:16;;;;;;;8.18;5.80;;;;;;;;;;4989010;28;20034;-56
2022/03/09 10:56:42;;;;;;;9.45;6.82;;;;;;;;;;4986781;28;20037;-55
2022/03/09 10:59:10;;;;;;;8.38;5.72;;;;;;;;;;4988740;28;20458;-56
2022/03/09 11:01:37;;;;;;;10.60;6.90;;;;;;;;;;4988409;28;20648;-55
2022/03/09 11:04:17;;;;;;;7.57;5.97;;;;;;;;;;4988197;28;20032;-56
2022/03/09 11:06:46;;;;;;;7.78;5.90;;;;;;;;;;4987427;28;20035;-55
2022/03/09 11:09:13;;;;;;;8.75;4.90;;;;;;;;;;4988540;28;20027;-56
2022/03/09 11:11:40;;;;;;;6.70;4.80;;;;;;;;;;4987648;28;20030;-56
2022/03/09 11:14:06;;;;;;;6.05;4.50;;;;;;;;;;4987722;28;20501;-55
2022/03/09 11:16:32;;;;;;;6.20;4.35;;;;;;;;;;4984597;28;20121;-56
2022/03/09 11:18:59;;;;;;;4.80;3.63;;;;;;;;;;4988237;28;20045;-56
2022/03/09 11:21:25;;;;;;;5.32;3.63;;;;;;;;;;4987184;28;20022;-56
2022/03/09 11:23:51;;;;;;;4.43;3.17;;;;;;;;;;4986751;28;20701;-56
2022/03/09 11:26:20;;;;;;;6.63;4.70;;;;;;;;;;4984697;28;20061;-56
2022/03/09 11:28:47;;;;;;;4.93;3.58;;;;;;;;;;4986055;28;20074;-56
2022/03/09 11:31:14;;;;;;;8.73;5.50;;;;;;;;;;4987351;28;20023;-56
2022/03/09 11:33:41;;;;;;;6.68;5.30;;;;;;;;;;4987046;28;20532;-56
2022/03/09 11:36:37;;;;;;;7.80;5.57;;;;;;;;;;4987614;28;20513;-56
2022/03/09 11:39:09;;;;;;;7.38;4.80;;;;;;;;;;4952586;28;20038;-56
2022/03/09 11:41:39;;;;;;;6.55;4.72;;;;;;;;;;4987519;28;20070;-55
2022/03/09 11:44:20;;;;;;;5.20;3.90;;;;;;;;;;4987715;28;20034;-56
2022/03/09 11:46:58;;;;;;;4.35;3.33;;;;;;;;;;4987585;28;20038;-56
2022/03/09 11:49:30;;;;;;;5.95;4.07;;;;;;;;;;4985930;28;20023;-55
2022/03/09 11:52:10;;;;;;;4.50;3.33;;;;;;;;;;4968381;28;20030;-56
2022/03/09 11:54:40;;;;;;;5.53;4.05;;;;;;;;;;4976420;28;20033;-56
2022/03/09 11:57:07;;;;;;;5.35;4.07;;;;;;;;;;4987788;28;20771;-56
2022/03/09 11:59:33;;;;;;;7.30;4.55;;;;;;;;;;4980415;28;20109;-56
2022/03/09 12:02:04;;;;;;;5.45;3.72;;;;;;;;;;4987663;28;20050;-56
2022/03/09 12:04:45;;;;;;;6.57;3.47;;;;;;;;;;4988170;28;20030;-56
2022/03/09 12:07:11;;;;;;;6.25;3.95;;;;;;;;;;4987706;28;20026;-56
2022/03/09 12:09:56;;;;;;;6.50;4.72;;;;;;;;;;4981723;28;20029;-56
2022/03/09 12:12:23;;;;;;;5.78;4.07;;;;;;;;;;4977873;28;20034;-56
2022/03/09 12:15:02;;;;;;;4.57;3.55;;;;;;;;;;4987243;28;20375;-56
2022/03/09 12:17:32;;;;;;;5.75;4.05;;;;;;;;;;4987879;28;20117;-56
2022/03/09 12:20:21;;;;;;;6.47;4.35;;;;;;;;;;4986601;28;20035;-56
2022/03/09 12:22:59;;;;;;;4.18;3.65;;;;;;;;;;4969478;28;20133;-56
2022/03/09 12:25:45;;;;;;;4.07;3.00;;;;;;;;;;4982765;28;20106;-56
2022/03/09 12:28:27;;;;;;;4.55;3.50;;;;;;;;;;4968279;28;20082;-55
2022/03/09 12:30:53;;;;;;;4.65;3.38;;;;;;;;;;4971739;28;20026;-56
2022/03/09 12:33:25;;;;;;;3.90;3.10;;;;;;;;;;4969808;28;20031;-55
2022/03/09 12:35:52;;;;;;;5.07;2.80;;;;;;;;;;4988289;28;20081;-56
2022/03/09 12:38:18;;;;;;;4.40;2.70;;;;;;;;;;4989845;28;20038;-56
2022/03/09 12:40:48;;;;;;;4.22;2.72;;;;;;;;;;4989214;28;20414;-56
2022/03/09 12:43:14;;;;;;;3.60;2.72;;;;;;;;;;4991254;28;20561;-56
2022/03/09 12:45:50;;;;;;;3.42;2.78;;;;;;;;;;4988234;28;20514;-56
2022/03/09 12:48:19;;;;;;;5.45;3.85;;;;;;;;;;4983429;28;20022;-56
2022/03/09 12:50:46;;;;;;;4.53;3.38;;;;;;;;;;4991278;28;20072;-56
2022/03/09 12:53:15;;;;;;;5.93;3.83;;;;;;;;;;4991132;28;20030;-56
2022/03/09 12:55:41;;;;;;;5.22;4.03;;;;;;;;;;4990879;28;20044;-56
2022/03/09 12:58:07;;;;;;;4.70;3.70;;;;;;;;;;4991082;28;20617;-56
2022/03/09 13:00:36;;;;;;;4.72;3.40;;;;;;;;;;4991265;28;20038;-56
2022/03/09 13:03:03;;;;;;;4.15;3.35;;;;;;;;;;4990491;28;20073;-56
2022/03/09 13:05:30;;;;;;;3.90;3.00;;;;;;;;;;4989004;28;20026;-56
2022/03/09 13:07:59;;;;;;;4.53;2.88;;;;;;;;;;4992491;28;20062;-56
2022/03/09 13:10:26;;;;;;;3.22;2.58;;;;;;;;;;4972251;28;20139;-56
2022/03/09 13:12:59;;;;;;;3.20;2.65;;;;;;;;;;4977636;28;20038;-57
2022/03/09 13:15:36;;;;;;;3.30;2.40;;;;;;;;;;5000281;28;20157;-56
2022/03/09 13:18:02;;;;;;;2.90;2.40;;;;;;;;;;4995019;28;20037;-56
2022/03/09 13:20:28;;;;;;;2.42;2.08;;;;;;;;;;4977969;28;20027;-55
2022/03/09 13:22:55;;;;;;;2.25;2.03;;;;;;;;;;4987598;28;20034;-56
2022/03/09 13:25:21;;;;;;;2.55;2.13;;;;;;;;;;4982045;28;20023;-56
2022/03/09 13:27:59;;;;;;;2.20;2.00;;;;;;;;;;4994370;28;20516;-56
2022/03/09 13:30:25;;;;;;;2.85;2.33;;;;;;;;;;5001613;28;20022;-56
2022/03/09 13:32:51;;;;;;;3.60;2.53;;;;;;;;;;4988023;28;20400;-56
2022/03/09 13:35:18;;;;;;;3.28;2.53;;;;;;;;;;5001859;28;20101;-56
2022/03/09 13:37:45;;;;;;;3.03;2.10;;;;;;;;;;4998850;28;20483;-56
2022/03/09 13:40:11;;;;;;;2.53;2.33;;;;;;;;;;4995918;28;20034;-56
2022/03/09 13:42:42;;;;;;;3.05;2.05;;;;;;;;;;4990778;28;20030;-56
2022/03/09 13:45:08;;;;;;;2.03;1.80;;;;;;;;;;4989005;28;20069;-56
2022/03/09 13:47:53;;;;;;;3.00;2.10;;;;;;;;;;4986339;28;20034;-56
2022/03/09 13:50:35;;;;;;;4.10;2.80;;;;;;;;;;4977844;28;20121;-56
2022/03/09 13:53:09;;;;;;;3.20;2.67;;;;;;;;;;4990543;28;20045;-56
2022/03/09 13:55:53;;;;;;;2.40;2.20;;;;;;;;;;4986756;28;20030;-56
2022/03/09 13:58:23;;;;;;;2.13;1.77;;;;;;;;;;4990241;28;20417;-56
2022/03/09 14:00:49;;;;;;;3.22;2.47;;;;;;;;;;4988070;28;20523;-56
2022/03/09 14:03:20;;;;;;;2.90;2.13;;;;;;;;;;4985697;28;20030;-56
2022/03/09 14:05:50;;;;;;;2.15;1.92;;;;;;;;;;4989376;28;20113;-56
2022/03/09 14:08:29;;;;;;;2.33;2.10;;;;;;;;;;4989456;28;20033;-56
2022/03/09 14:11:15;;;;;;;2.92;2.40;;;;;;;;;;4990342;28;20026;-56
2022/03/09 14:13:59;;;;;;;2.63;2.33;;;;;;;;;;4989586;28;20030;-56
2022/03/09 14:16:26;;;;;;;4.22;2.40;;;;;;;;;;4990409;28;20030;-56
2022/03/09 14:18:52;;;;;;;3.85;2.58;;;;;;;;;;4985265;28;20838;-56
2022/03/09 14:21:18;;;;;;;4.18;2.83;;;;;;;;;;4975755;28;20034;-56
2022/03/09 14:23:48;;;;;;;3.17;2.65;;;;;;;;;;4975360;28;20096;-56
2022/03/09 14:26:15;;;;;;;2.85;2.53;;;;;;;;;;4985967;28;20061;-56
2022/03/09 14:28:41;;;;;;;2.50;2.30;;;;;;;;;;4993483;28;20433;-56
2022/03/09 14:31:07;;;;;;;2.38;2.17;;;;;;;;;;5003628;28;20034;-56
2022/03/09 14:33:33;;;;;;;3.13;2.35;;;;;;;;;;4989605;28;20030;-56
2022/03/09 14:35:59;;;;;;;3.63;2.30;;;;;;;;;;4992093;28;20143;-56
2022/03/09 14:38:28;;;;;;;3.65;2.72;;;;;;;;;;4989830;28;20038;-56
2022/03/09 14:40:54;;;;;;;2.85;2.55;;;;;;;;;;4986235;28;20027;-58
2022/03/09 14:43:20;;;;;;;3.95;3.00;;;;;;;;;;4976377;28;20055;-56